Latest Weather Observations for Cape Bruny AWS

IDT60801

Issued at 6:41 am EST Wednesday 8 April 2020 (issued every 10 minutes, with the page automatically refreshed every 10 minutes)

About weather observations | Map of weather stations | Latest weather observations for TAS | Other Formats
Station Details ID: 094198 Name: CAPE BRUNY (CAPE BRUNY) Lat: -43.49 Lon: 147.14 Height: 59.7 m
Data from the previous 72 hours. | See also: Recent months at Cape Bruny AWS
Date/Time
EST
Temp
°C
App
Temp
°C
Dew
Point
°C
Rel
Hum
%
Delta-T
°C
Wind Press
QNH
hPa
Press
MSL
hPa
Rain since
9am
mm
Dir  Spd
km/h
Gust
km/h
Spd
kts
Gust
kts
08/06:30am 10.8 6.8 4.9 67 2.7 SSW 15 24 8 13 1026.0 1026.0 1.2
08/06:00am 10.9 7.2 6.3 73 2.1 SSW 15 24 8 13 1025.7 1025.7 1.2
08/05:30am 10.8 7.0 5.8 71 2.3 SW 15 22 8 12 1025.4 1025.4 1.2
08/05:00am 10.7 7.1 6.8 77 1.8 SW 15 22 8 12 1025.1 1025.1 1.2
08/04:30am 10.6 7.1 7.3 80 1.6 SW 15 26 8 14 1024.8 1024.8 1.2
08/04:00am 10.6 8.0 7.7 82 1.4 SSW 11 19 6 10 1024.5 1024.5 1.2
08/03:30am 10.1 6.8 7.9 86 1.1 SW 15 22 8 12 1024.4 1024.4 1.2
08/03:00am 10.0 7.9 8.3 89 0.8 W 9 13 5 7 1024.3 1024.3 1.2
08/02:30am 10.2 6.9 8.1 87 1.0 SSW 15 30 8 16 1024.5 1024.5 0.8
08/02:00am 10.4 6.6 7.6 83 1.3 SW 17 24 9 13 1024.2 1024.2 0.8
08/01:30am 10.0 6.3 7.9 87 1.0 SSW 17 32 9 17 1024.1 1024.1 0.8
08/01:00am 10.4 6.2 8.3 87 1.0 W 20 26 11 14 1023.8 1023.8 0.8
08/12:30am 10.2 5.5 7.8 85 1.2 W 22 28 12 15 1023.6 1023.6 0.8
08/12:00am 10.7 6.4 7.9 83 1.4 W 20 28 11 15 1023.5 1023.5 0.8
 
Date/Time
EST
Temp
°C
App
Temp
°C
Dew
Point
°C
Rel
Hum
%
Delta-T
°C
Wind Press
QNH
hPa
Press
MSL
hPa
Rain since
9am
mm
Dir  Spd
km/h
Gust
km/h
Spd
kts
Gust
kts
07/11:30pm 10.9 5.1 8.1 83 1.4 WSW 28 41 15 22 1023.5 1023.5 0.8
07/11:29pm 10.9 5.1 8.1 83 1.4 WSW 28 41 15 22 1023.5 1023.5 0.8
07/11:00pm 10.7 7.0 7.9 83 1.4 WSW 17 20 9 11 1023.4 1023.4 0.8
07/10:30pm 11.1 5.6 7.4 78 1.8 SW 26 37 14 20 1023.4 1023.4 0.8
07/10:00pm 10.8 6.7 8.0 83 1.4 SW 19 28 10 15 1023.2 1023.2 0.8
07/09:30pm 11.2 6.6 8.2 82 1.5 SW 22 35 12 19 1023.0 1023.0 0.8
07/09:00pm 11.0 5.6 8.1 82 1.4 SW 26 35 14 19 1022.8 1022.8 0.8
07/08:30pm 10.8 5.1 8.4 85 1.2 SW 28 37 15 20 1022.5 1022.5 0.8
07/08:00pm 10.7 5.9 9.0 89 0.8 SW 24 35 13 19 1022.2 1022.2 0.6
07/07:30pm 10.8 5.4 9.4 91 0.7 WSW 28 39 15 21 1022.0 1022.0 0.6
07/07:11pm 10.8 5.4 9.4 91 0.7 WSW 28 46 15 25 1021.7 1021.7 0.4
07/07:00pm 11.0 6.0 9.6 91 0.7 WSW 26 33 14 18 1021.6 1021.6 0.2
07/06:30pm 11.1 5.7 9.5 90 0.8 WSW 28 33 15 18 1021.1 1021.1 0.0
07/06:00pm 11.0 4.7 9.1 88 0.9 WSW 32 44 17 24 1020.6 1020.6 0.0
07/05:30pm 11.1 5.3 9.4 89 0.9 WSW 30 39 16 21 1020.4 1020.4 0.0
07/05:18pm 11.2 5.7 9.3 88 1.0 SW 28 46 15 25 1020.2 1020.2 0.0
07/05:00pm 11.6 5.2 9.3 86 1.2 SW 33 46 18 25 1020.0 1020.0 0.0
07/04:30pm 12.2 5.4 9.4 83 1.4 WSW 35 44 19 24 1019.8 1019.8 0.0
07/04:00pm 12.6 6.8 9.4 81 1.6 WSW 30 44 16 24 1020.0 1020.0 0.0
07/03:30pm 12.9 5.8 9.4 79 1.8 WSW 37 46 20 25 1019.9 1019.9 0.0
07/03:00pm 13.3 6.7 10.1 81 1.7 WSW 35 48 19 26 1019.9 1019.9 0.0
07/02:30pm 13.7 8.7 9.6 76 2.1 WSW 26 33 14 18 1019.9 1019.9 0.0
07/02:00pm 14.8 11.2 9.8 72 2.6 WSW 19 28 10 15 1020.1 1020.1 0.0
07/01:30pm 16.1 13.2 9.8 66 3.3 WSW 15 22 8 12 1020.1 1020.1 0.0
07/01:00pm 15.9 12.7 9.8 67 3.2 W 17 22 9 12 1020.3 1020.3 0.0
07/12:30pm 14.3 10.4 9.3 72 2.6 WSW 20 30 11 16 1020.8 1020.8 0.0
07/12:00pm 14.1 10.9 8.3 68 2.9 W 15 20 8 11 1021.0 1021.0 0.0
07/11:30am 14.0 11.0 7.5 65 3.2 W 13 19 7 10 1021.1 1021.1 0.0
07/11:00am 14.5 11.6 8.2 66 3.2 WNW 13 17 7 9 1021.0 1021.0 0.0
07/10:30am 15.1 12.0 8.8 66 3.2 W 15 20 8 11 1021.3 1021.3 0.0
07/10:00am 14.3 10.4 8.5 68 2.9 WNW 19 24 10 13 1021.3 1021.3 0.0
07/09:30am 13.7 9.8 8.5 71 2.6 W 19 24 10 13 1021.3 1021.3 0.0
07/09:00am 13.0 10.0 7.5 69 2.7 NW 13 17 7 9 1021.3 1021.3 0.0
07/08:30am 12.2 8.8 7.5 73 2.3 NNW 15 17 8 9 1021.3 1021.3 0.0
07/08:00am 11.5 8.0 7.0 74 2.1 NW 15 20 8 11 1021.1 1021.1 0.0
07/07:30am 11.1 6.2 7.0 76 2.0 NW 22 33 12 18 1020.9 1020.9 0.0
07/07:00am 10.7 6.2 7.0 78 1.8 WNW 20 30 11 16 1020.5 1020.5 0.0
07/06:30am 10.2 6.2 6.5 78 1.7 NW 17 24 9 13 1020.4 1020.4 0.0
07/06:00am 10.2 6.9 6.2 76 1.9 NW 13 17 7 9 1020.5 1020.5 0.0
07/05:30am 10.5 7.2 6.3 75 2.0 NW 13 20 7 11 1020.5 1020.5 0.0
07/05:00am 10.3 6.9 5.9 74 2.0 NNW 13 20 7 11 1020.4 1020.4 0.0
07/04:30am 10.2 7.1 5.6 73 2.1 WNW 11 17 6 9 1020.2 1020.2 0.0
07/04:00am 10.7 7.3 5.7 71 2.3 WNW 13 17 7 9 1020.2 1020.2 0.0
07/03:30am 10.5 5.6 5.3 70 2.4 NW 20 24 11 13 1020.0 1020.0 0.0
07/03:00am 10.6 5.3 4.9 68 2.6 NW 22 28 12 15 1020.1 1020.1 0.0
07/02:30am 10.7 5.5 5.3 69 2.5 NW 22 30 12 16 1020.4 1020.4 0.0
07/02:00am 10.6 5.3 4.9 68 2.6 NW 22 32 12 17 1020.6 1020.6 0.0
07/01:30am 10.6 5.7 5.2 69 2.5 NW 20 26 11 14 1020.6 1020.6 0.0
07/01:00am 10.9 6.6 5.4 69 2.5 WNW 17 26 9 14 1020.6 1020.6 0.0
07/12:30am 10.9 6.0 5.0 67 2.7 WNW 20 33 11 18 1020.5 1020.5 0.0
07/12:00am 10.8 5.3 6.0 72 2.2 WNW 24 33 13 18 1020.5 1020.5 0.0
 
Date/Time
EST
Temp
°C
App
Temp
°C
Dew
Point
°C
Rel
Hum
%
Delta-T
°C
Wind Press
QNH
hPa
Press
MSL
hPa
Rain since
9am
mm
Dir  Spd
km/h
Gust
km/h
Spd
kts
Gust
kts
06/11:30pm 10.9 3.8 6.3 73 2.2 W 33 43 18 23 1020.4 1020.4 0.0
06/11:00pm 11.0 2.9 6.9 76 1.9 WSW 39 50 21 27 1020.4 1020.4 0.0
06/10:30pm 10.9 2.7 6.6 75 2.0 WSW 39 46 21 25 1020.4 1020.4 0.0
06/10:00pm 10.5 1.5 6.6 77 1.8 WSW 43 54 23 29 1020.4 1020.4 0.0
06/09:30pm 10.4 1.9 6.9 79 1.7 WSW 41 56 22 30 1020.0 1020.0 0.0
06/09:00pm 10.4 1.8 6.5 77 1.8 WSW 41 52 22 28 1020.0 1020.0 0.0
06/08:30pm 10.8 2.9 6.0 72 2.2 WSW 37 48 20 26 1019.9 1019.9 0.0
06/08:00pm 10.8 3.9 6.4 74 2.1 WSW 32 43 17 23 1019.5 1019.5 0.0
06/07:30pm 11.0 2.8 6.4 73 2.2 W 39 57 21 31 1019.2 1019.2 0.0
06/07:29pm 11.1 3.0 6.8 75 2.0 W 39 57 21 31 1019.2 1019.2 0.0
06/07:00pm 10.9 3.8 6.6 75 2.0 WSW 33 46 18 25 1018.9 1018.9 0.0
06/06:30pm 10.6 4.1 6.4 75 2.0 WSW 30 39 16 21 1018.4 1018.4 0.0
06/06:00pm 10.8 1.8 6.4 74 2.1 WSW 43 52 23 28 1018.0 1018.0 0.0
06/05:30pm 11.1 2.7 5.8 70 2.5 WSW 39 52 21 28 1017.7 1017.7 0.0
06/05:00pm 11.2 3.2 5.9 70 2.5 WSW 37 46 20 25 1017.4 1017.4 0.0
06/04:30pm 10.9 3.4 6.5 74 2.1 WSW 35 43 19 23 1017.1 1017.1 0.0
06/04:00pm 10.9 3.8 6.5 74 2.1 WSW 33 46 18 25 1017.1 1017.1 0.0
06/03:30pm 11.6 4.7 6.3 70 2.5 W 32 43 17 23 1016.9 1016.9 0.0
06/03:00pm 11.5 2.7 5.4 66 2.8 W 41 52 22 28 1016.6 1016.6 0.0
06/02:43pm 11.2 1.0 5.3 67 2.7 WSW 48 69 26 37 1016.3 1016.3 0.0
06/02:30pm 11.5 1.8 6.0 69 2.6 WSW 46 54 25 29 1016.3 1016.3 0.0
06/02:00pm 12.2 3.3 4.9 61 3.4 W 41 59 22 32 1015.9 1015.9 0.0
06/01:55pm 11.9 3.6 4.4 60 3.4 W 37 59 20 32 1015.8 1015.8 0.0
06/01:30pm 11.8 4.2 5.9 67 2.8 W 35 50 19 27 1015.8 1015.8 0.0
06/01:00pm 11.6 2.6 4.3 61 3.3 W 41 54 22 29 1015.7 1015.7 0.0
06/12:41pm 12.1 2.7 5.3 63 3.2 W 44 63 24 34 1015.6 1015.6 0.0
06/12:30pm 11.5 1.6 4.7 63 3.1 W 46 59 25 32 1015.5 1015.5 0.0
06/12:11pm 11.8 3.3 5.0 63 3.1 W 39 57 21 31 1015.6 1015.6 0.0
06/12:00pm 11.5 3.1 5.6 67 2.7 W 39 54 21 29 1015.6 1015.6 0.0
06/11:50am 11.7 4.0 5.3 65 3.0 W 35 54 19 29 1015.5 1015.5 0.0
06/11:30am 11.6 3.2 5.5 66 2.8 W 39 50 21 27 1015.4 1015.4 0.0
06/11:00am 11.1 3.7 5.0 66 2.8 W 33 52 18 28 1015.2 1015.2 0.0
06/10:57am 11.1 3.7 5.0 66 2.8 W 33 52 18 28 1015.2 1015.2 0.0
06/10:30am 11.0 2.1 5.3 68 2.6 W 41 56 22 30 1014.8 1014.8 0.0
06/10:00am 10.9 3.5 5.0 67 2.7 W 33 44 18 24 1014.6 1014.6 0.0
06/09:30am 10.6 1.7 5.2 69 2.5 W 41 56 22 30 1014.0 1014.0 0.0
06/09:00am 10.9 3.8 6.3 73 2.2 W 33 43 18 23 1013.9 1013.9 3.6
06/08:56am 10.7 3.1 5.7 71 2.3 W 35 54 19 29 1013.8 1013.8 3.6
06/08:30am 10.4 2.8 5.8 73 2.1 W 35 52 19 28 1013.5 1013.5 3.6
06/08:00am 10.1 1.5 6.3 77 1.8 W 41 56 22 30 1012.8 1012.8 3.6
06/07:30am 9.7 0.6 7.0 83 1.3 WSW 44 57 24 31 1012.2 1012.2 3.6
06/07:01am 9.7 2.2 8.0 89 0.8 W 37 57 20 31 1011.5 1011.5 3.4
06/07:00am 9.7 2.6 8.0 89 0.8 W 35 48 19 26 1011.6 1011.6 3.4
06/06:30am 9.3 0.6 7.6 89 0.8 W 43 52 23 28 1010.7 1010.7 3.0
06/06:00am 9.2 0.4 7.3 88 0.9 W 43 54 23 29 1010.4 1010.4 2.8
06/05:30am 9.1 0.7 7.2 88 0.9 W 41 50 22 27 1009.6 1009.6 2.2
06/05:13am 9.5 1.1 7.3 86 1.0 W 41 59 22 32 1009.4 1009.4 1.8
06/05:00am 9.4 0.9 7.0 85 1.1 W 41 54 22 29 1009.1 1009.1 1.8
06/04:30am 9.7 0.7 7.1 84 1.2 W 44 57 24 31 1008.6 1008.6 1.8
06/04:06am 9.4 -0.1 6.5 82 1.4 W 46 65 25 35 1008.0 1008.0 1.8
06/04:00am 9.6 -0.7 6.5 81 1.5 W 50 65 27 35 1007.8 1007.8 1.8
06/03:30am 9.6 0.1 6.5 81 1.4 W 46 57 25 31 1007.4 1007.4 1.8
06/03:00am 9.5 0.4 5.9 78 1.7 W 43 52 23 28 1007.1 1007.1 1.6
06/02:30am 8.6 1.9 5.7 82 1.3 WNW 30 39 16 21 1007.0 1007.0 1.6
06/02:18am 8.5 -0.3 5.6 82 1.3 W 41 59 22 32 1006.7 1006.7 1.6
06/02:00am 8.9 0.5 5.5 79 1.5 W 39 54 21 29 1006.6 1006.6 1.4
06/01:49am 8.6 1.2 5.2 79 1.5 W 33 56 18 30 1006.7 1006.7 1.4
06/01:30am 8.3 1.8 4.9 79 1.5 WNW 28 37 15 20 1006.4 1006.4 1.4
06/01:00am 7.8 1.7 4.6 80 1.4 WNW 26 37 14 20 1006.0 1006.0 1.4
06/12:30am 8.1 0.8 4.5 78 1.6 WNW 32 41 17 22 1005.7 1005.7 1.2
06/12:00am 8.0 0.5 4.2 77 1.7 WNW 33 44 18 24 1005.5 1005.5 1.0
 
Date/Time
EST
Temp
°C
App
Temp
°C
Dew
Point
°C
Rel
Hum
%
Delta-T
°C
Wind Press
QNH
hPa
Press
MSL
hPa
Rain since
9am
mm
Dir  Spd
km/h
Gust
km/h
Spd
kts
Gust
kts
05/11:31pm 7.6 0.1 4.2 79 1.5 WNW 33 52 18 28 1005.1 1005.1 1.0
05/11:30pm 7.6 0.1 4.2 79 1.5 WNW 33 48 18 26 1005.1 1005.1 1.0
05/11:00pm 7.6 1.7 4.0 78 1.6 WNW 24 37 13 20 1004.8 1004.7 1.0
05/10:44pm 7.5 -0.8 4.3 80 1.4 WNW 37 56 20 30 1004.8 1004.7 1.0
05/10:30pm 7.6 -1.0 4.4 80 1.4 WNW 39 54 21 29 1004.7 1004.6 0.8
05/10:00pm 7.5 -1.0 3.2 74 1.8 WNW 37 48 20 26 1004.1 1004.0 0.8
05/09:48pm 7.7 -0.3 3.6 75 1.8 WNW 35 54 19 29 1004.3 1004.2 0.8
05/09:30pm 7.8 0.6 2.9 71 2.1 WNW 30 46 16 25 1004.1 1004.0 0.8
05/09:00pm 8.1 -1.1 3.4 72 2.0 WNW 41 56 22 30 1003.4 1003.3 0.8
05/08:57pm 7.9 -0.2 3.2 72 2.0 WNW 35 54 19 29 1003.4 1003.3 0.8
05/08:30pm 7.9 -0.1 3.6 74 1.8 WNW 35 48 19 26 1002.9 1002.8 0.8
05/08:00pm 7.3 0.9 3.0 74 1.8 WNW 26 39 14 21 1002.5 1002.4 0.8
05/07:31pm 7.2 -0.6 3.1 75 1.7 WNW 33 56 18 30 1002.0 1001.9 0.8
05/07:30pm 7.4 0.0 4.0 79 1.5 WNW 32 46 17 25 1002.0 1001.9 0.8
05/07:00pm 7.0 -0.7 3.4 78 1.5 WNW 33 46 18 25 1001.6 1001.6 0.8
05/06:30pm 7.0 -1.0 4.0 81 1.3 WNW 35 43 19 23 1001.0 1001.0 0.8
05/06:00pm 7.8 1.2 4.2 78 1.6 WNW 28 35 15 19 1000.7 1000.7 0.6
05/05:30pm 8.1 -0.3 3.9 75 1.8 WNW 37 44 20 24 999.7 999.7 0.6
05/05:00pm 7.4 -0.3 3.6 77 1.6 WNW 33 41 18 22 999.1 999.1 0.6
05/04:42pm 8.4 0.4 4.0 74 1.9 W 35 61 19 33 998.7 998.7 0.6
05/04:30pm 8.1 1.1 3.9 75 1.8 W 30 41 16 22 998.5 998.5 0.6
05/04:00pm 9.2 2.8 3.4 67 2.5 WNW 26 35 14 19 997.9 997.9 0.6
05/03:30pm 9.1 -0.2 4.9 75 1.9 WNW 43 52 23 28 997.3 997.3 0.6
05/03:06pm 7.6 -1.7 3.1 73 1.9 W 41 63 22 34 997.0 997.0 0.4
05/03:00pm 8.1 0.0 3.4 72 2.0 W 35 46 19 25 996.9 996.9 0.4
05/02:59pm 8.2 0.5 3.5 72 2.0 W 33 46 18 25 996.9 996.9 0.4
05/02:44pm 8.1 -1.1 3.4 72 2.0 WSW 41 56 22 30 996.7 996.7 0.4
05/02:30pm 8.9 -2.6 4.5 74 1.9 W 54 74 29 40 996.2 996.2 0.4
05/02:03pm 10.2 -1.8 3.5 63 2.9 WSW 56 74 30 40 995.8 995.8 0.2
05/02:00pm 9.7 -2.7 2.6 61 3.1 WSW 57 74 31 40 995.8 995.8 0.2
05/01:52pm 10.0 -1.0 2.8 61 3.1 W 50 69 27 37 995.5 995.5 0.2
05/01:30pm 10.6 1.1 3.9 63 3.0 W 43 59 23 32 995.2 995.2 0.2
05/01:00pm 9.2 0.3 3.0 65 2.7 W 39 59 21 32 995.0 995.0 0.2
05/12:55pm 9.8 2.1 3.5 65 2.7 W 33 52 18 28 995.2 995.2 0.2
05/12:30pm 9.3 2.3 4.1 70 2.3 W 30 41 16 22 995.4 995.4 0.2
05/12:00pm 7.2 -2.0 3.6 78 1.6 W 41 61 22 33 995.3 995.3 0.2
05/11:50am 6.6 -4.7 3.4 80 1.4 WSW 52 70 28 38 995.2 995.2 0.2
05/11:34am 9.8 2.3 3.3 64 2.8 WSW 32 50 17 27 995.2 995.2 0.0
05/11:30am 10.5 3.8 3.8 63 3.0 W 28 37 15 20 995.2 995.2 0.0
05/11:00am 9.3 3.0 3.7 68 2.5 W 26 37 14 20 994.8 994.8 0.0
05/10:56am 9.0 3.8 2.6 64 2.7 WNW 19 37 10 20 994.9 994.9 0.0
05/10:30am 9.5 6.4 3.7 67 2.5 WNW 9 11 5 6 995.1 995.1 0.0
05/10:00am 8.6 4.7 3.2 69 2.3 W 13 20 7 11 995.2 995.2 0.0
05/09:30am 7.8 3.6 3.8 76 1.7 WSW 15 20 8 11 995.1 995.1 0.0
05/09:00am 7.6 2.5 2.9 72 2.0 WNW 19 28 10 15 995.0 995.0 7.0
05/08:30am 8.0 3.6 2.9 70 2.2 NNW 15 24 8 13 994.6 994.6 7.0
05/08:00am 6.8 1.4 2.7 75 1.7 NNW 20 28 11 15 994.3 994.3 7.0
05/07:30am 6.4 -0.2 2.1 74 1.8 NW 26 39 14 21 994.0 994.0 7.0
05/07:00am 5.6 -1.3 2.4 80 1.3 NNW 28 35 15 19 993.6 993.6 7.0

Other formats

Comma delimited format used in spreadsheet applications
http://www.bom.gov.au/fwo/IDT60801/IDT60801.95967.axf

JavaScript Object Notation format (JSON) in row-major order
http://www.bom.gov.au/fwo/IDT60801/IDT60801.95967.json

Data quality

Most of these data are generated automatically and are frequently updated. Quality checks on data are not normally performed. It is possible for incorrect values to appear. Refer to information at About Latest Weather Observations and please check the disclaimer before using these data.